KLAL/LAL METAR and TAF weather

Enter ICAO airport designator
Station Type Date Time Source
KLAL METAR 2022/06/26 07:55 UTC NOAA

KLAL 260755Z AUTO 02003KT 10SM CLR 24/24 A3002 RMK AO2 T02350235


Station Type Date Time Source
KLAL Decoded METAR 2022/06/26 07:55 UTC NOAA

Lakeland Regional, FL, United States (KLAL) 27-59N 082-01W
Jun 26, 2022 - 03:55 AM EDT / 2022.06.26 0755 UTC
Wind: from the NNE (020 degrees) at 3 MPH (3 KT):0
Visibility: 10 mile(s):0
Sky conditions: clear
Temperature: 74.3 F (23.5 C)
Dew Point: 74.3 F (23.5 C)
Relative Humidity: 100%
Pressure (altimeter): 30.02 in. Hg (1016 hPa)
ob: KLAL 260755Z AUTO 02003KT 10SM CLR 24/24 A3002 RMK AO2 T02350235
cycle: 8

Station Type Date Time Source
KLAL TAF 2022/06/26 06:45 UTC NOAA

TAF KLAL 260543Z 2606/2706 VRB03KT P6SM BKN250
FM261400 07007KT P6SM SCT020 SCT250
FM261800 08008KT P6SM VCTS SCT035CB BKN100
FM270100 07005KT P6SM SCT060 BKN250
AMD NOT SKED TIL 261100

Example: see airport list